KSTJ/STJ METAR and TAF weather

Enter ICAO airport designator
Station Type Date Time Source
KSTJ METAR 2021/06/24 06:53 UTC NOAA

KSTJ 240653Z AUTO 18012KT 10SM CLR 27/22 A2983 RMK AO2 SLP090 T02670217


Station Type Date Time Source
KSTJ Decoded METAR 2021/06/24 06:53 UTC NOAA

ROSECRANS MEMORIAL AIRPORT, MO, United States (KSTJ) 39-46N 94-55W 247M
Jun 24, 2021 - 02:53 AM EDT / 2021.06.24 0653 UTC
Wind: from the S (180 degrees) at 14 MPH (12 KT):0
Visibility: 10 mile(s):0
Sky conditions: clear
Temperature: 80.1 F (26.7 C)
Dew Point: 71.1 F (21.7 C)
Relative Humidity: 74%
Pressure (altimeter): 29.83 in. Hg (1010 hPa)
ob: KSTJ 240653Z AUTO 18012KT 10SM CLR 27/22 A2983 RMK AO2 SLP090 T02670217
cycle: 7

Station Type Date Time Source
KSTJ TAF 2021/06/24 06:22 UTC NOAA

TAF KSTJ 240520Z 2406/2506 18010KT P6SM SCT050 BKN250
TEMPO 2410/2414 VRB20G30KT 5SM -TSRA BKN025CB
FM241400 16012KT P6SM SCT035 BKN100
FM241800 16015G25KT P6SM SCT035
FM250100 13010KT P6SM VCTS BKN045CB

Example: see airport list